Ardenhurst, Minnesota
Current Conditions -  °F | °C
As of 4:13 PM on Monday 20 Oct 2014 (Local Time) from KFOZ Reporting Station
Overcast Overcast  
Wind Chill: 44°   Ceiling: 2100
Heat Index: 46°   Visibility: 10mi
Dew Point: 37°   Wind: 5mph
Humidity: 71%   Direction: 10°N
Pressure: 30.05"   Gusts: NA
Location:  47.8312°N, 94.1459°W
Report Text: KFOZ 202113Z AUTO 01004KT 10SM OVC021 08/03 A3005 RMK AO2
Loading
Personal Weather Stations






























Interactive Weather Map New forecast layout! Learn more

10-Day Weather Forecast

Advertisements
Track Severe Weather on mobile